Saint Agatha, Maine
Current Conditions -  °F | °C
As of 7:53 AM on Monday 22 Dec 2014 (Local Time) from KFVE Reporting Station
Overcast Overcast  
Wind Chill: -8°   Ceiling: 2600
Heat Index: -8°   Visibility: 10mi
Dew Point: -8°   Wind: 3mph
Humidity: 96%   Direction: 160°SSE
Pressure: 30.37"   Gusts: NA
Location:  47.24°N, 68.31°W
Report Text: KFVE 221253Z AUTO 16003KT 10SM FEW016 OVC026 M08/M08 A3037 RMK AO2 SLP301 T10781083
Loading
Personal Weather Stations






























Interactive Weather Map New forecast layout! Learn more

10-Day Weather Forecast

Advertisements
Track Severe Weather on mobile